Time;durP1;ratioP1;P1;durP2;ratioP2;P2;SDS_P1;SDS_P2;PMS_P1;PMS_P2;Temp;Humidity;BMP_temperature;BMP_pressure;BME280_temperature;BME280_humidity;BME280_pressure;Samples;Min_cycle;Max_cycle;Signal;HPM_P1;HPM_P2
2021/12/13 00:03:20;;;;;;;26.62;14.38;;;;;;;3.30;72.33;101395.62;1764104;81;21386;-53
2021/12/13 00:06:33;;;;;;;25.88;15.00;;;;;;;3.29;72.32;101398.42;1771436;80;21201;-53
2021/12/13 00:09:43;;;;;;;28.62;14.78;;;;;;;3.31;72.41;101408.67;1771522;80;21339;-53
2021/12/13 00:12:54;;;;;;;25.85;14.05;;;;;;;3.32;72.30;101398.22;1771023;80;21701;-54
2021/12/13 00:16:06;;;;;;;29.45;15.30;;;;;;;3.34;72.25;101382.75;1771343;80;21324;-53
2021/12/13 00:19:18;;;;;;;24.92;14.93;;;;;;;3.38;72.25;101390.55;1770891;81;21363;-53
2021/12/13 00:22:31;;;;;;;31.17;14.95;;;;;;;3.41;72.14;101382.21;1770220;80;21216;-52
2021/12/13 00:25:37;;;;;;;26.45;14.47;;;;;;;3.38;71.94;101385.14;1771058;80;21197;-53
2021/12/13 00:28:46;;;;;;;27.85;15.10;;;;;;;3.34;72.03;101387.69;1770739;80;21335;-53
2021/12/13 00:32:09;;;;;;;29.15;14.95;;;;;;;3.35;72.03;101386.70;1771053;80;21371;-53
2021/12/13 00:35:18;;;;;;;;;;;;;;;3.35;71.90;101383.13;1773569;81;21193;-54
2021/12/13 00:38:27;;;;;;;35.13;15.30;;;;;;;3.37;71.91;101378.00;1770956;81;20218;-52
2021/12/13 00:41:36;;;;;;;28.80;15.08;;;;;;;3.42;71.98;101394.80;1770734;81;21279;-53
2021/12/13 00:45:03;;;;;;;26.45;14.87;;;;;;;3.48;71.87;101397.06;1771162;80;21550;-53
2021/12/13 00:48:10;;;;;;;27.80;14.95;;;;;;;3.53;71.86;101394.03;1770655;81;21367;-54
2021/12/13 00:51:33;;;;;;;31.73;15.58;;;;;;;3.57;71.69;101386.10;1770898;81;21355;-54
2021/12/13 00:54:45;;;;;;;28.95;14.70;;;;;;;3.59;71.59;101396.31;1770948;80;21332;-53
2021/12/13 00:58:02;;;;;;;30.25;14.20;;;;;;;3.58;71.36;101390.05;1770668;81;21398;-53
2021/12/13 01:01:12;;;;;;;27.22;14.15;;;;;;;3.59;71.40;101385.01;1770556;80;21260;-53
2021/12/13 01:04:21;;;;;;;32.58;14.90;;;;;;;3.60;71.16;101390.78;1770951;81;21362;-53
2021/12/13 01:08:07;;;;;;;25.57;14.10;;;;;;;3.55;70.97;101384.82;1770996;80;21233;-54
2021/12/13 01:11:29;;;;;;;29.18;13.93;;;;;;;3.50;70.99;101385.66;1770894;80;21217;-53
2021/12/13 01:14:45;;;;;;;26.45;13.28;;;;;;;3.51;71.06;101391.91;1770777;81;21402;-52
2021/12/13 01:21:38;;;;;;;24.43;14.10;;;;;;;3.44;70.89;101379.80;1770149;80;21200;-54
2021/12/13 01:27:54;;;;;;;27.27;14.18;;;;;;;3.50;70.98;101355.88;1769735;80;21318;-53
2021/12/13 01:31:07;;;;;;;34.35;15.10;;;;;;;3.51;71.13;101337.30;1773673;80;21769;-53
2021/12/13 01:34:13;;;;;;;25.27;14.28;;;;;;;3.48;71.09;101329.41;1772749;81;21607;-53
2021/12/13 01:37:18;;;;;;;27.95;14.00;;;;;;;3.47;71.10;101333.58;1772908;80;21189;-55
2021/12/13 01:40:23;;;;;;;24.72;12.00;;;;;;;3.42;71.01;101328.48;1773135;80;21374;-54
2021/12/13 01:43:32;;;;;;;28.45;14.98;;;;;;;3.34;71.04;101329.50;1773012;80;21383;-55
2021/12/13 01:46:40;;;;;;;24.52;13.32;;;;;;;3.25;71.16;101326.06;1772735;80;21355;-54
2021/12/13 01:49:50;;;;;;;27.10;13.88;;;;;;;3.25;71.51;101328.77;1745647;80;21205;-53
2021/12/13 01:53:00;;;;;;;26.50;13.10;;;;;;;3.24;71.46;101331.11;1773186;80;21225;-53
2021/12/13 01:56:22;;;;;;;30.82;13.18;;;;;;;3.27;71.68;101339.52;1773003;80;21749;-53
2021/12/13 01:59:42;;;;;;;23.73;13.35;;;;;;;3.27;71.70;101324.13;1771003;79;21205;-52
2021/12/13 02:02:48;;;;;;;27.40;13.18;;;;;;;3.28;71.66;101331.77;1773430;80;21363;-52
2021/12/13 02:05:55;;;;;;;23.40;12.93;;;;;;;3.26;71.64;101322.88;1772712;80;21347;-53
2021/12/13 02:09:04;;;;;;;29.65;13.95;;;;;;;3.23;71.65;101323.98;1773063;80;21654;-53
2021/12/13 02:12:14;;;;;;;22.40;14.15;;;;;;;3.26;71.65;101325.59;1773165;80;21675;-53
2021/12/13 02:18:48;;;;;;;26.40;13.55;;;;;;;3.33;71.63;101307.97;1773268;80;21279;-53
2021/12/13 02:21:56;;;;;;;31.23;13.93;;;;;;;3.32;71.56;101312.50;1773104;80;21248;-52
2021/12/13 02:25:05;;;;;;;29.45;13.85;;;;;;;3.33;71.58;101311.52;1737507;82;21366;-55
2021/12/13 02:28:29;;;;;;;31.05;13.83;;;;;;;3.29;71.39;101304.61;1736909;82;21227;-54
2021/12/13 02:31:39;;;;;;;24.32;13.40;;;;;;;3.23;71.45;101280.69;1736780;82;21706;-53
2021/12/13 02:34:48;;;;;;;28.23;14.28;;;;;;;3.18;71.55;101282.84;1736928;82;21361;-52
2021/12/13 02:37:53;;;;;;;22.60;13.22;;;;;;;3.17;71.43;101285.19;1736828;82;21366;-53
2021/12/13 02:40:58;;;;;;;22.20;13.32;;;;;;;3.13;71.59;101291.77;1736868;82;21316;-53
2021/12/13 02:44:10;;;;;;;24.10;13.32;;;;;;;3.09;71.75;101284.34;1736535;82;21220;-53
2021/12/13 02:47:24;;;;;;;23.47;13.32;;;;;;;3.07;71.79;101289.48;1736854;82;21919;-52
2021/12/13 02:50:49;;;;;;;27.67;13.32;;;;;;;3.12;72.11;101290.05;1737043;82;21216;-53
2021/12/13 02:54:02;;;;;;;28.25;13.70;;;;;;;3.19;71.93;101305.37;1736851;82;21259;-53
2021/12/13 02:57:17;;;;;;;20.45;12.03;;;;;;;3.13;71.73;101312.53;1737071;82;21211;-53
2021/12/13 03:00:27;;;;;;;25.25;12.68;;;;;;;3.15;71.87;101315.52;1736953;82;21187;-53
2021/12/13 03:03:36;;;;;;;29.07;14.35;;;;;;;3.15;71.80;101321.41;1736948;82;21195;-53
2021/12/13 03:06:46;;;;;;;23.32;12.25;;;;;;;3.13;71.79;101311.17;1736975;82;21219;-52
2021/12/13 03:09:53;;;;;;;22.05;12.13;;;;;;;3.14;71.95;101318.34;1737326;82;21365;-53
2021/12/13 03:12:59;;;;;;;26.77;12.78;;;;;;;3.20;72.07;101301.20;1736880;82;21262;-53
2021/12/13 03:16:12;;;;;;;24.43;13.15;;;;;;;3.25;71.95;101292.25;1736771;82;21250;-53
2021/12/13 03:19:31;;;;;;;25.68;12.63;;;;;;;3.26;71.68;101300.77;1737082;82;21231;-53
2021/12/13 03:23:10;;;;;;;27.75;13.22;;;;;;;3.28;71.71;101293.41;1736857;82;21263;-53
2021/12/13 03:27:05;;;;;;;24.92;13.45;;;;;;;3.31;71.58;101297.73;1773230;80;21328;-54
2021/12/13 03:30:22;;;;;;;25.23;12.85;;;;;;;3.31;71.49;101308.08;1772727;79;21277;-54
2021/12/13 03:33:31;;;;;;;25.40;12.58;;;;;;;3.30;71.29;101311.73;1772769;80;21370;-53
2021/12/13 03:37:08;;;;;;;25.57;12.05;;;;;;;3.22;71.23;101305.99;1763838;81;21202;-53
2021/12/13 03:40:21;;;;;;;25.50;12.47;;;;;;;3.18;71.40;101300.42;1773213;80;21343;-54
2021/12/13 03:43:38;;;;;;;23.02;12.70;;;;;;;3.20;71.52;101301.67;1772905;80;21624;-53
2021/12/13 03:46:42;;;;;;;28.50;12.90;;;;;;;3.21;71.43;101300.22;1772980;80;21247;-53
2021/12/13 03:49:59;;;;;;;20.52;11.75;;;;;;;3.22;71.42;101294.33;1773004;80;21351;-53
2021/12/13 03:53:08;;;;;;;22.40;12.58;;;;;;;3.19;71.31;101299.95;1772931;80;21355;-53
2021/12/13 03:56:19;;;;;;;21.00;11.38;;;;;;;3.15;71.33;101287.13;1772924;80;21539;-53
2021/12/13 03:59:34;;;;;;;23.00;13.00;;;;;;;3.13;71.40;101284.13;1773218;80;21362;-53
2021/12/13 04:02:43;;;;;;;21.20;11.53;;;;;;;3.11;71.50;101294.20;1772753;80;21346;-52
2021/12/13 04:05:49;;;;;;;26.30;12.82;;;;;;;3.03;71.44;101288.83;1772736;80;21354;-55
2021/12/13 04:08:57;;;;;;;22.58;12.65;;;;;;;3.02;71.73;101291.16;1772845;80;21200;-55
2021/12/13 04:12:06;;;;;;;21.30;12.95;;;;;;;3.04;71.81;101279.73;1773104;80;21201;-54
2021/12/13 04:19:16;;;;;;;21.85;11.70;;;;;;;3.09;71.86;101286.20;1755875;80;21308;-55
2021/12/13 04:22:24;;;;;;;22.77;12.13;;;;;;;3.12;71.82;101287.34;1772748;80;21399;-55
2021/12/13 04:25:35;;;;;;;25.68;12.75;;;;;;;3.12;71.78;101290.05;1762237;80;21201;-55
2021/12/13 04:28:47;;;;;;;25.82;12.53;;;;;;;3.08;71.79;101276.84;1770949;80;21911;-55
2021/12/13 04:31:53;;;;;;;25.20;13.28;;;;;;;3.08;71.86;101287.16;1770794;81;21170;-56
2021/12/13 04:35:04;;;;;;;25.37;12.53;;;;;;;3.04;71.76;101278.89;1770725;80;21409;-54
2021/12/13 04:38:11;;;;;;;24.55;12.78;;;;;;;3.01;71.82;101287.22;1771077;80;21268;-55
2021/12/13 04:41:16;;;;;;;18.17;10.98;;;;;;;2.99;71.94;101282.39;1770827;80;21391;-55
2021/12/13 04:44:33;;;;;;;24.60;12.55;;;;;;;2.98;71.98;101284.73;1770667;80;21216;-54
2021/12/13 04:47:57;;;;;;;22.60;12.28;;;;;;;3.01;72.16;101288.06;1770543;80;21367;-53
2021/12/13 04:51:14;;;;;;;24.47;12.28;;;;;;;3.02;72.11;101274.06;1767850;80;21189;-55
2021/12/13 04:54:21;;;;;;;24.10;14.15;;;;;;;2.99;72.16;101268.88;1771104;80;22013;-54
2021/12/13 04:57:26;;;;;;;30.02;13.43;;;;;;;2.98;72.18;101259.88;1770852;80;21707;-54
2021/12/13 05:00:39;;;;;;;27.67;13.08;;;;;;;2.94;72.30;101260.20;1770817;80;21347;-54
2021/12/13 05:03:56;;;;;;;22.67;13.03;;;;;;;2.93;72.35;101249.02;1770720;80;21177;-54
2021/12/13 05:07:01;;;;;;;36.75;15.08;;;;;;;2.92;72.45;101262.14;1771098;80;21339;-55
2021/12/13 05:10:07;;;;;;;26.57;12.63;;;;;;;2.91;72.66;101259.06;1771097;80;21374;-55
2021/12/13 05:13:30;;;;;;;27.37;13.15;;;;;;;2.91;72.67;101255.88;1771074;80;21213;-55
2021/12/13 05:17:01;;;;;;;24.75;14.00;;;;;;;2.94;72.85;101265.61;1770212;80;21185;-54
2021/12/13 05:20:28;;;;;;;28.25;14.55;;;;;;;2.96;72.84;101257.80;1771414;80;21201;-55
2021/12/13 05:23:34;;;;;;;28.07;13.05;;;;;;;2.99;72.87;101260.75;1771101;80;21232;-55
2021/12/13 05:26:46;;;;;;;21.62;12.47;;;;;;;3.03;72.92;101256.84;1769193;80;21213;-54
2021/12/13 05:29:55;;;;;;;45.55;21.52;;;;;;;3.02;72.83;101256.00;1766604;80;21378;-54
2021/12/13 05:33:04;;;;;;;29.85;15.23;;;;;;;2.99;72.84;101266.16;1771084;80;21240;-54
2021/12/13 05:36:13;;;;;;;26.77;13.43;;;;;;;2.98;72.99;101270.70;1770635;80;21165;-55
2021/12/13 05:39:23;;;;;;;30.43;17.57;;;;;;;3.02;73.08;101262.77;1770757;81;21193;-54
2021/12/13 05:42:29;;;;;;;37.80;21.37;;;;;;;3.04;73.06;101259.95;1770619;80;21849;-54
2021/12/13 05:45:45;;;;;;;36.88;17.95;;;;;;;3.12;73.15;101276.52;1763942;80;21737;-54
2021/12/13 05:49:03;;;;;;;38.85;16.50;;;;;;;3.17;72.99;101266.25;1768486;80;21224;-54
2021/12/13 05:52:20;;;;;;;35.48;15.80;;;;;;;3.22;72.92;101254.59;1770136;80;21161;-54
2021/12/13 05:55:26;;;;;;;37.70;19.92;;;;;;;3.24;72.84;101259.41;1769609;81;21194;-59
2021/12/13 05:58:41;;;;;;;44.15;19.80;;;;;;;3.30;72.77;101267.09;1767817;80;21213;-59
2021/12/13 06:02:19;;;;;;;32.95;17.00;;;;;;;3.35;72.74;101256.81;1686260;84;21586;-59
2021/12/13 06:05:35;;;;;;;34.27;15.60;;;;;;;3.40;72.62;101259.19;1676910;85;21725;-58
2021/12/13 06:08:44;;;;;;;32.65;15.50;;;;;;;3.42;72.44;101260.83;1697669;83;21229;-59
2021/12/13 06:11:50;;;;;;;34.25;19.40;;;;;;;3.42;72.31;101260.83;1689486;84;21700;-57
2021/12/13 06:14:58;;;;;;;46.48;27.00;;;;;;;3.43;72.37;101271.14;1660382;85;21775;-59
2021/12/13 06:18:16;;;;;;;34.55;16.82;;;;;;;3.47;72.34;101273.55;1736679;81;21590;-57
2021/12/13 06:21:37;;;;;;;31.60;14.87;;;;;;;3.54;72.36;101271.24;1738710;81;21224;-56
2021/12/13 06:25:05;;;;;;;29.65;14.07;;;;;;;3.59;72.14;101269.95;1738581;82;21276;-57
2021/12/13 06:28:10;;;;;;;28.17;14.40;;;;;;;3.62;71.92;101283.75;1750517;79;21765;-57
2021/12/13 06:31:22;;;;;;;32.85;15.13;;;;;;;3.62;71.73;101280.56;1734307;81;21197;-57
2021/12/13 06:34:29;;;;;;;23.52;13.55;;;;;;;3.59;71.31;101286.20;1746558;81;21251;-58
2021/12/13 06:37:40;;;;;;;22.30;14.35;;;;;;;3.54;71.58;101281.59;1725845;81;21179;-57
2021/12/13 06:40:45;;;;;;;22.67;13.13;;;;;;;3.59;71.73;101297.50;1755993;81;21590;-57
2021/12/13 06:43:59;;;;;;;23.77;12.95;;;;;;;3.63;71.59;101298.52;1736369;81;21785;-57
2021/12/13 06:47:20;;;;;;;30.20;15.43;;;;;;;3.67;71.47;101300.05;1748412;81;21226;-58
2021/12/13 06:50:32;;;;;;;33.67;13.83;;;;;;;3.66;71.34;101286.16;1757089;81;21197;-57
2021/12/13 06:53:40;;;;;;;29.98;15.00;;;;;;;3.69;71.25;101280.99;1769568;80;21218;-57
2021/12/13 06:56:46;;;;;;;28.62;13.65;;;;;;;3.62;71.19;101282.39;1749497;81;21320;-58
2021/12/13 07:00:04;;;;;;;26.77;14.10;;;;;;;3.62;71.28;101281.03;1747405;81;21251;-58
2021/12/13 07:03:16;;;;;;;23.80;13.83;;;;;;;3.65;71.28;101284.87;1758260;80;21209;-59
2021/12/13 07:06:25;;;;;;;38.08;22.98;;;;;;;3.73;71.49;101294.67;1768807;81;21248;-58
2021/12/13 07:09:32;;;;;;;32.95;13.83;;;;;;;3.79;71.41;101290.19;1768663;80;21193;-58
2021/12/13 07:12:37;;;;;;;26.02;12.98;;;;;;;3.81;71.13;101304.46;1768807;80;21220;-58
2021/12/13 07:15:54;;;;;;;21.70;13.53;;;;;;;3.71;70.77;101300.70;1745260;80;21251;-57
2021/12/13 07:19:07;;;;;;;25.35;12.47;;;;;;;3.72;71.18;101311.42;1769078;81;21566;-57
2021/12/13 07:22:14;;;;;;;31.12;15.93;;;;;;;3.80;71.10;101306.33;1768623;81;21239;-58
2021/12/13 07:25:23;;;;;;;27.27;15.90;;;;;;;3.84;71.17;101302.89;1746081;81;21181;-57
2021/12/13 07:28:41;;;;;;;25.10;12.85;;;;;;;3.94;71.21;101307.55;1762648;80;21198;-60
2021/12/13 07:31:48;;;;;;;27.77;14.95;;;;;;;3.97;70.91;101305.09;1758129;80;21746;-58
2021/12/13 07:35:27;;;;;;;26.73;13.70;;;;;;;3.99;70.67;101304.02;1738641;82;21781;-59
2021/12/13 07:38:34;;;;;;;26.97;13.65;;;;;;;4.03;70.66;101313.64;1730943;82;21233;-58
2021/12/13 07:41:51;;;;;;;25.12;13.18;;;;;;;4.10;70.52;101314.94;1765184;81;21192;-58
2021/12/13 07:44:57;;;;;;;26.30;12.13;;;;;;;4.05;70.26;101322.53;1769637;80;21251;-58
2021/12/13 07:48:02;;;;;;;30.75;16.50;;;;;;;4.00;70.14;101328.77;1769835;80;21204;-58
2021/12/13 07:51:18;;;;;;;24.45;13.00;;;;;;;3.99;70.28;101316.21;1768771;81;21201;-59
2021/12/13 07:54:26;;;;;;;26.97;13.40;;;;;;;4.04;70.35;101324.00;1738462;82;21212;-58
2021/12/13 07:57:37;;;;;;;30.17;13.22;;;;;;;4.08;70.22;101322.30;1738317;82;21192;-58
2021/12/13 08:00:45;;;;;;;29.82;15.40;;;;;;;4.08;70.23;101316.01;1738635;82;21184;-59
2021/12/13 08:03:55;;;;;;;28.23;15.30;;;;;;;4.07;70.18;101319.71;1742279;81;21220;-59
2021/12/13 08:07:06;;;;;;;27.67;13.08;;;;;;;4.12;70.30;101312.11;1739517;82;21263;-60
2021/12/13 08:10:28;;;;;;;24.67;14.25;;;;;;;4.15;70.28;101318.66;1756366;81;21166;-59
2021/12/13 08:13:42;;;;;;;25.92;13.65;;;;;;;4.13;70.27;101312.00;1759729;81;21197;-58
2021/12/13 08:16:52;;;;;;;27.45;13.15;;;;;;;4.16;70.36;101309.55;1760183;81;21209;-58
2021/12/13 08:20:10;;;;;;;25.92;13.72;;;;;;;4.21;70.61;101310.08;1742643;81;21241;-57
2021/12/13 08:23:27;;;;;;;29.20;13.45;;;;;;;4.19;70.66;101299.35;1739301;81;21716;-57
2021/12/13 08:26:44;;;;;;;27.32;15.10;;;;;;;4.18;70.87;101298.98;1738430;82;21201;-58
2021/12/13 08:29:51;;;;;;;29.80;14.55;;;;;;;4.21;70.97;101289.27;1734110;80;21893;-58
2021/12/13 08:33:14;;;;;;;32.50;14.73;;;;;;;4.23;71.09;101277.81;1749491;81;21252;-59
2021/12/13 08:36:25;;;;;;;31.83;14.60;;;;;;;4.21;71.13;101282.98;1771037;80;21200;-57
2021/12/13 08:39:39;;;;;;;31.65;14.78;;;;;;;4.17;71.16;101285.04;1771068;80;21213;-57
2021/12/13 08:42:49;;;;;;;29.35;15.25;;;;;;;4.21;71.20;101290.63;1768237;80;21240;-57
2021/12/13 08:45:56;;;;;;;31.82;14.83;;;;;;;4.25;71.22;101279.08;1741973;82;21354;-57
2021/12/13 08:49:02;;;;;;;29.18;14.70;;;;;;;4.26;71.18;101280.32;1731424;80;21220;-58
2021/12/13 08:52:20;;;;;;;27.15;13.70;;;;;;;4.21;70.92;101278.91;1762864;80;21798;-57
2021/12/13 08:55:33;;;;;;;29.07;14.15;;;;;;;4.13;70.94;101263.23;1744384;81;21280;-60
2021/12/13 08:58:40;;;;;;;25.72;13.75;;;;;;;4.15;71.30;101265.34;1771277;80;21208;-58
2021/12/13 09:02:01;;;;;;;35.95;14.85;;;;;;;4.18;71.30;101262.89;1769341;80;22034;-58
2021/12/13 09:05:12;;;;;;;29.57;15.03;;;;;;;4.17;71.25;101270.14;1739455;81;21208;-58
2021/12/13 09:08:22;;;;;;;32.42;16.17;;;;;;;4.17;71.36;101262.01;1745720;81;21197;-58
2021/12/13 09:11:37;;;;;;;37.15;18.80;;;;;;;4.16;71.54;101260.29;1747896;81;21236;-57
2021/12/13 09:14:50;;;;;;;;;;;;;;;4.13;71.49;101267.30;1741237;82;21212;-57
2021/12/13 09:17:55;;;;;;;35.50;16.17;;;;;;;4.08;71.70;101261.83;1755516;79;20195;-58
2021/12/13 09:21:04;;;;;;;27.77;15.63;;;;;;;4.05;71.80;101265.64;1740367;81;21212;-58
2021/12/13 09:24:10;;;;;;;82.62;36.98;;;;;;;4.04;72.02;101261.17;1748157;79;21169;-58
2021/12/13 09:27:30;;;;;;;45.50;26.23;;;;;;;4.07;72.16;101258.27;1744376;81;21827;-58
2021/12/13 09:30:42;;;;;;;43.70;20.55;;;;;;;4.05;72.18;101255.28;1742899;81;21752;-58
2021/12/13 09:33:55;;;;;;;34.18;16.87;;;;;;;4.04;72.31;101250.34;1705098;83;21297;-58
2021/12/13 09:37:03;;;;;;;37.85;17.37;;;;;;;4.04;72.15;101261.17;1755766;80;21200;-56
2021/12/13 09:40:09;;;;;;;37.93;16.67;;;;;;;3.98;72.11;101256.22;1761146;81;21742;-57
2021/12/13 09:43:14;;;;;;;38.13;18.92;;;;;;;3.86;72.13;101273.38;1757753;81;21251;-58
2021/12/13 09:46:21;;;;;;;37.60;17.82;;;;;;;3.74;72.45;101278.83;1676008;85;21256;-58
2021/12/13 09:49:51;;;;;;;41.05;17.95;;;;;;;3.61;72.80;101284.26;1757386;81;21718;-58
2021/12/13 09:53:07;;;;;;;33.55;17.07;;;;;;;3.59;73.43;101285.32;1757791;81;21256;-58
2021/12/13 09:56:17;;;;;;;33.28;17.02;;;;;;;3.63;73.58;101290.41;1675688;85;21694;-58
2021/12/13 09:59:49;;;;;;;32.42;16.77;;;;;;;3.62;73.72;101279.20;1758445;81;21885;-57
2021/12/13 10:03:02;;;;;;;31.52;17.48;;;;;;;3.65;73.71;101280.34;1676741;85;21414;-57
2021/12/13 10:06:12;;;;;;;43.87;22.35;;;;;;;3.62;73.54;101278.33;1747276;81;21385;-59
2021/12/13 10:09:25;;;;;;;31.52;18.35;;;;;;;3.52;73.60;101265.94;1738093;81;21239;-58
2021/12/13 10:12:39;;;;;;;35.97;19.77;;;;;;;3.52;74.03;101275.42;1730053;83;21301;-57
2021/12/13 10:15:49;;;;;;;42.13;18.10;;;;;;;3.57;74.07;101266.48;1729753;82;21713;-57
2021/12/13 10:18:59;;;;;;;38.10;18.73;;;;;;;3.64;74.37;101256.96;1729870;83;21895;-58
2021/12/13 10:22:07;;;;;;;36.53;19.57;;;;;;;3.71;74.45;101262.80;1730373;83;21895;-57
2021/12/13 10:25:20;;;;;;;40.35;23.77;;;;;;;3.76;74.25;101258.77;1737173;81;21385;-59
2021/12/13 10:28:30;;;;;;;42.03;22.82;;;;;;;3.75;74.20;101249.41;1732451;81;21338;-59
2021/12/13 10:31:45;;;;;;;36.55;20.15;;;;;;;3.81;74.24;101252.53;1731510;81;22257;-57
2021/12/13 10:34:56;;;;;;;38.88;20.30;;;;;;;3.83;73.93;101260.06;1740709;82;21189;-59
2021/12/13 10:38:05;;;;;;;39.25;18.87;;;;;;;3.78;74.09;101252.77;1740500;82;21391;-58
2021/12/13 10:41:24;;;;;;;40.80;21.23;;;;;;;3.83;74.28;101254.66;1740726;82;22173;-58
2021/12/13 10:44:32;;;;;;;37.38;21.02;;;;;;;3.90;74.24;101251.02;1740759;82;21390;-57
2021/12/13 10:47:43;;;;;;;42.62;25.20;;;;;;;3.94;74.09;101245.73;1740764;82;21703;-57
2021/12/13 10:51:01;;;;;;;53.68;26.60;;;;;;;3.94;73.79;101242.54;1741357;82;21252;-57
2021/12/13 10:54:08;;;;;;;38.98;20.68;;;;;;;3.95;73.75;101236.13;1742798;81;21880;-58
2021/12/13 10:57:25;;;;;;;36.28;19.45;;;;;;;3.96;73.67;101245.14;1741436;82;21320;-58
2021/12/13 11:00:36;;;;;;;37.08;19.85;;;;;;;3.98;73.53;101241.83;1751278;81;21316;-57
2021/12/13 11:03:45;;;;;;;42.33;19.95;;;;;;;4.02;73.50;101234.72;1771668;81;21532;-56
2021/12/13 11:06:52;;;;;;;36.08;19.55;;;;;;;4.04;73.48;101231.89;1771623;80;21324;-58
2021/12/13 11:09:59;;;;;;;34.08;20.45;;;;;;;4.04;73.28;101233.25;1771886;80;21170;-58
2021/12/13 11:13:05;;;;;;;33.23;18.65;;;;;;;4.03;73.30;101235.08;1768150;80;21348;-57
2021/12/13 11:16:25;;;;;;;35.05;18.52;;;;;;;3.98;73.12;101228.29;1760463;81;21209;-57
2021/12/13 11:19:35;;;;;;;35.92;17.80;;;;;;;3.97;73.30;101237.37;1771120;81;21252;-57
2021/12/13 11:22:41;;;;;;;31.02;19.85;;;;;;;3.93;73.15;101246.72;1763845;81;21342;-57
2021/12/13 11:25:50;;;;;;;37.80;19.00;;;;;;;3.81;73.19;101246.24;1760283;81;21214;-58
2021/12/13 11:28:56;;;;;;;37.65;18.85;;;;;;;3.81;73.69;101251.18;1751940;81;21208;-56
2021/12/13 11:32:35;;;;;;;34.80;19.55;;;;;;;3.84;73.66;101250.95;1733403;81;21490;-57
2021/12/13 11:36:16;;;;;;;;;;;;;;;3.84;73.50;101248.72;1744265;81;21206;-58
2021/12/13 11:39:48;;;;;;;41.10;19.12;;;;;;;3.75;73.39;101240.80;1739107;82;20207;-57
2021/12/13 11:43:43;;;;;;;36.53;19.90;;;;;;;3.66;73.37;101243.31;1752048;81;21321;-57
2021/12/13 11:47:14;;;;;;;38.48;18.87;;;;;;;3.60;73.71;101221.59;1752819;81;21210;-57
2021/12/13 11:50:49;;;;;;;43.68;21.87;;;;;;;3.62;74.17;101224.19;1750246;80;21166;-58
2021/12/13 11:54:21;;;;;;;33.63;19.65;;;;;;;3.60;74.21;101220.23;1749998;80;21173;-51
2021/12/13 11:57:53;;;;;;;38.58;21.40;;;;;;;3.65;74.43;101219.90;1751359;80;21241;-52
2021/12/13 12:01:48;;;;;;;43.83;22.65;;;;;;;3.70;74.62;101216.37;1754117;80;21188;-52
2021/12/13 12:05:21;;;;;;;36.93;20.55;;;;;;;3.75;74.54;101219.14;1753171;81;21262;-53
2021/12/13 12:08:44;;;;;;;40.80;21.10;;;;;;;3.77;74.53;101213.13;1754400;81;21205;-51
2021/12/13 12:12:24;;;;;;;47.30;23.90;;;;;;;3.79;74.55;101220.63;1768246;80;21761;-51
2021/12/13 12:15:31;;;;;;;40.38;22.73;;;;;;;3.81;74.45;101211.91;1730462;82;21256;-54
2021/12/13 12:18:41;;;;;;;51.90;25.52;;;;;;;3.82;74.39;101214.98;1737755;82;21675;-53
2021/12/13 12:22:01;;;;;;;53.42;24.25;;;;;;;3.77;74.05;101211.78;1738151;80;21252;-50
2021/12/13 12:25:07;;;;;;;48.65;24.12;;;;;;;3.69;74.11;101214.18;1737094;82;21177;-51
2021/12/13 12:28:21;;;;;;;54.60;32.08;;;;;;;3.74;74.57;101209.78;1743651;81;21268;-51
2021/12/13 12:31:25;;;;;;;48.95;23.20;;;;;;;3.76;74.64;101212.73;1736964;80;21500;-52
2021/12/13 12:34:30;;;;;;;37.28;21.90;;;;;;;3.80;74.64;101211.55;1743978;80;21213;-52
2021/12/13 12:38:07;;;;;;;47.93;22.22;;;;;;;3.84;74.54;101221.16;1754436;81;21182;-53
2021/12/13 12:41:41;;;;;;;39.58;22.40;;;;;;;3.83;74.46;101219.45;1754643;80;21720;-53
2021/12/13 12:45:07;;;;;;;45.83;23.05;;;;;;;3.78;74.17;101227.03;1744106;81;21253;-52
2021/12/13 12:48:24;;;;;;;43.28;22.25;;;;;;;3.71;74.39;101226.25;1745056;81;21212;-51
2021/12/13 12:51:33;;;;;;;44.33;22.30;;;;;;;3.66;74.23;101231.13;1738184;81;21260;-52
2021/12/13 12:54:42;;;;;;;42.00;22.50;;;;;;;3.62;74.40;101237.72;1741411;80;21228;-52
2021/12/13 12:57:47;;;;;;;43.08;21.48;;;;;;;3.57;74.29;101243.48;1749730;80;21794;-52
2021/12/13 13:00:53;;;;;;;46.80;22.95;;;;;;;3.52;74.61;101248.34;1744924;80;21184;-52
2021/12/13 13:04:00;;;;;;;39.70;21.90;;;;;;;3.54;74.82;101250.47;1769629;80;21208;-52
2021/12/13 13:07:13;;;;;;;42.67;23.15;;;;;;;3.55;74.79;101251.34;1759571;81;21216;-52
2021/12/13 13:10:28;;;;;;;41.53;22.17;;;;;;;3.59;75.07;101245.59;1749538;80;21208;-51
2021/12/13 13:13:31;;;;;;;42.05;20.57;;;;;;;3.64;75.12;101255.61;1763280;80;21185;-52
2021/12/13 13:16:42;;;;;;;43.30;22.00;;;;;;;3.68;74.98;101245.42;1760168;80;21231;-53
2021/12/13 13:19:55;;;;;;;46.08;25.43;;;;;;;3.63;74.58;101248.44;1750375;81;21196;-52
2021/12/13 13:23:04;;;;;;;45.67;22.30;;;;;;;3.56;74.76;101248.52;1737790;81;21719;-52
2021/12/13 13:26:12;;;;;;;37.98;22.82;;;;;;;3.53;74.80;101251.45;1747855;81;21188;-57
2021/12/13 13:29:18;;;;;;;43.85;22.42;;;;;;;3.43;74.98;101244.96;1756479;81;21212;-56
2021/12/13 13:32:24;;;;;;;44.03;22.50;;;;;;;3.44;75.22;101250.73;1748075;81;21810;-57
2021/12/13 13:35:30;;;;;;;37.00;21.55;;;;;;;3.49;75.44;101253.14;1743312;81;21303;-57
2021/12/13 13:38:35;;;;;;;49.05;29.52;;;;;;;3.55;75.54;101249.99;1753687;80;21752;-58
2021/12/13 13:41:42;;;;;;;37.95;23.07;;;;;;;3.59;75.43;101241.53;1762232;81;21613;-51
2021/12/13 13:44:53;;;;;;;47.62;23.85;;;;;;;3.61;75.30;101249.54;1770226;80;21389;-58
2021/12/13 13:48:13;;;;;;;45.95;23.92;;;;;;;3.61;75.16;101242.30;1769814;80;21209;-57
2021/12/13 13:51:21;;;;;;;45.23;24.45;;;;;;;3.62;75.02;101236.38;1754508;81;21254;-58
2021/12/13 13:54:26;;;;;;;45.17;23.77;;;;;;;3.65;75.04;101238.85;1756679;81;21189;-57
2021/12/13 13:57:37;;;;;;;51.28;25.48;;;;;;;3.66;75.02;101238.77;1752920;81;21522;-57
2021/12/13 14:00:48;;;;;;;40.28;23.55;;;;;;;3.61;74.52;101233.30;1751644;81;21309;-56
2021/12/13 14:03:58;;;;;;;42.75;23.92;;;;;;;3.49;74.84;101225.56;1754441;81;21201;-57
2021/12/13 14:07:19;;;;;;;47.67;24.98;;;;;;;3.50;75.07;101223.26;1755771;81;21941;-58
2021/12/13 14:10:28;;;;;;;41.00;22.93;;;;;;;3.53;75.04;101223.03;1752632;80;21800;-58
2021/12/13 14:13:37;;;;;;;52.73;29.20;;;;;;;3.53;75.17;101219.45;1748433;80;21378;-57
2021/12/13 14:16:43;;;;;;;49.45;24.60;;;;;;;3.55;75.18;101210.74;1738229;81;21198;-57
2021/12/13 14:19:54;;;;;;;45.30;25.12;;;;;;;3.50;75.01;101207.50;1752370;81;21272;-58
2021/12/13 14:23:05;;;;;;;49.42;26.33;;;;;;;3.49;75.14;101209.33;1752664;80;21920;-57
2021/12/13 14:26:14;;;;;;;49.85;24.85;;;;;;;3.53;75.24;101214.04;1746751;81;21912;-57
2021/12/13 14:29:21;;;;;;;39.58;22.60;;;;;;;3.55;75.17;101204.81;1743275;81;21760;-56
2021/12/13 14:32:26;;;;;;;53.10;24.63;;;;;;;3.57;75.17;101207.44;1749221;81;21200;-57
2021/12/13 14:35:36;;;;;;;51.53;26.55;;;;;;;3.59;75.08;101215.81;1748396;80;21235;-56
2021/12/13 14:38:49;;;;;;;47.93;24.63;;;;;;;3.55;74.99;101219.70;1758250;81;21200;-57
2021/12/13 14:42:15;;;;;;;47.27;26.82;;;;;;;3.55;75.03;101221.57;1750646;80;21566;-56
2021/12/13 14:45:24;;;;;;;49.75;24.43;;;;;;;3.43;74.71;101223.30;1739276;81;21200;-57
2021/12/13 14:48:33;;;;;;;51.92;23.55;;;;;;;3.28;74.82;101228.48;1739389;82;21216;-57
2021/12/13 14:51:49;;;;;;;48.30;25.15;;;;;;;3.22;75.05;101228.05;1764075;81;21718;-56
2021/12/13 14:54:58;;;;;;;45.08;25.97;;;;;;;3.25;75.37;101231.88;1770343;81;21180;-58
2021/12/13 14:58:10;;;;;;;49.98;25.35;;;;;;;3.30;75.40;101228.37;1759378;80;21236;-57
2021/12/13 15:01:23;;;;;;;44.83;24.65;;;;;;;3.37;75.48;101238.64;1760069;80;21785;-57
2021/12/13 15:04:36;;;;;;;43.00;21.55;;;;;;;3.41;75.35;101240.64;1703065;83;21841;-58